createdAt,value
2018-08-14T00:00:32.270Z,0
2018-08-14T00:01:34.666Z,0
2018-08-14T00:02:36.756Z,0
2018-08-14T00:03:38.847Z,0
2018-08-14T00:04:40.935Z,0
2018-08-14T00:05:43.722Z,0
2018-08-14T00:06:45.808Z,0
2018-08-14T00:07:47.907Z,0
2018-08-14T00:08:50.009Z,0
2018-08-14T00:09:52.106Z,0
2018-08-14T00:10:54.193Z,0
2018-08-14T00:11:56.288Z,0
2018-08-14T00:12:58.377Z,0
2018-08-14T00:14:00.771Z,0
2018-08-14T00:15:03.432Z,0
2018-08-14T00:16:05.531Z,0
2018-08-14T00:17:07.927Z,0
2018-08-14T00:18:10.007Z,0
2018-08-14T00:19:12.123Z,0
2018-08-14T00:20:14.217Z,0
2018-08-14T00:21:16.308Z,0
2018-08-14T00:22:18.399Z,0
2018-08-14T00:23:20.500Z,0
2018-08-14T00:24:22.589Z,0
2018-08-14T00:25:24.687Z,0
2018-08-14T00:26:27.072Z,0
2018-08-14T00:27:29.155Z,0
2018-08-14T00:28:31.253Z,0
2018-08-14T00:29:33.355Z,0
2018-08-14T00:30:35.744Z,0
2018-08-14T00:31:37.844Z,0
2018-08-14T00:32:40.327Z,0
2018-08-14T00:33:42.417Z,0
2018-08-14T00:34:44.526Z,0
2018-08-14T00:35:47.004Z,0
2018-08-14T00:36:49.385Z,0
2018-08-14T00:37:51.473Z,0
2018-08-14T00:38:53.867Z,0
2018-08-14T00:39:55.949Z,0
2018-08-14T00:40:58.053Z,0
2018-08-14T00:42:00.150Z,0
2018-08-14T00:43:02.519Z,0
2018-08-14T00:44:04.630Z,0
2018-08-14T00:45:07.020Z,0
2018-08-14T00:46:09.120Z,0
2018-08-14T00:47:11.491Z,0
2018-08-14T00:48:13.594Z,0
2018-08-14T00:49:15.980Z,0
2018-08-14T00:50:18.085Z,0
2018-08-14T00:51:20.161Z,0
2018-08-14T00:52:22.555Z,0
2018-08-14T00:53:25.032Z,0
2018-08-14T00:54:27.123Z,0
2018-08-14T00:55:29.204Z,0
2018-08-14T00:56:31.594Z,0
2018-08-14T00:57:34.075Z,0
2018-08-14T00:58:36.166Z,0
2018-08-14T00:59:38.262Z,0
2018-08-14T01:00:40.341Z,0
2018-08-14T01:01:42.729Z,0
2018-08-14T01:02:44.833Z,0
2018-08-14T01:03:46.910Z,0
2018-08-14T01:04:49.012Z,0
2018-08-14T01:05:51.111Z,0
2018-08-14T01:06:53.197Z,0
2018-08-14T01:07:55.303Z,0
2018-08-14T01:08:57.389Z,0
2018-08-14T01:09:59.487Z,0
2018-08-14T01:11:01.573Z,0
2018-08-14T01:12:03.682Z,0
2018-08-14T01:13:06.151Z,0
2018-08-14T01:14:08.246Z,0
2018-08-14T01:15:10.347Z,0
2018-08-14T01:16:12.425Z,0
2018-08-14T01:17:14.527Z,0
2018-08-14T01:18:16.660Z,0
2018-08-14T01:19:18.715Z,0
2018-08-14T01:20:20.798Z,0
2018-08-14T01:21:22.900Z,0
2018-08-14T01:22:24.984Z,0
2018-08-14T01:23:27.073Z,0
2018-08-14T01:24:29.181Z,0
2018-08-14T01:25:31.273Z,0
2018-08-14T01:26:33.363Z,0
2018-08-14T01:27:35.739Z,0
2018-08-14T01:28:38.219Z,0
2018-08-14T01:29:40.318Z,0
2018-08-14T01:30:42.406Z,0
2018-08-14T01:31:44.511Z,0
2018-08-14T01:32:46.607Z,0
2018-08-14T01:33:48.686Z,0
2018-08-14T01:34:50.780Z,0
2018-08-14T01:35:52.882Z,0
2018-08-14T01:36:54.959Z,0
2018-08-14T01:37:57.059Z,0
2018-08-14T01:38:59.441Z,0
2018-08-14T01:40:01.531Z,0
2018-08-14T01:41:03.645Z,0
2018-08-14T01:42:05.732Z,0
2018-08-14T01:43:08.147Z,0
2018-08-14T01:44:10.230Z,0
2018-08-14T01:45:12.646Z,0
2018-08-14T01:46:14.732Z,0
2018-08-14T01:47:16.868Z,0
2018-08-14T01:48:19.329Z,0
2018-08-14T01:49:21.723Z,0
2018-08-14T01:50:23.827Z,0
2018-08-14T01:51:26.302Z,0
2018-08-14T01:52:28.791Z,0
2018-08-14T01:53:30.872Z,0
2018-08-14T01:54:32.972Z,0
2018-08-14T01:55:35.070Z,0
2018-08-14T01:56:37.448Z,0
2018-08-14T01:57:39.562Z,0
2018-08-14T01:58:41.643Z,0
2018-08-14T01:59:44.033Z,0
2018-08-14T02:00:46.419Z,0
2018-08-14T02:01:48.513Z,0
2018-08-14T02:02:50.981Z,0
2018-08-14T02:03:53.371Z,0
2018-08-14T02:04:55.454Z,0
2018-08-14T02:05:57.546Z,0
2018-08-14T02:06:59.646Z,0
2018-08-14T02:08:01.739Z,0
2018-08-14T02:09:03.823Z,0
2018-08-14T02:10:05.925Z,0
2018-08-14T02:11:08.019Z,0
2018-08-14T02:12:10.098Z,0
2018-08-14T02:13:12.202Z,0
2018-08-14T02:14:14.856Z,0
2018-08-14T02:15:16.946Z,0
2018-08-14T02:16:19.041Z,0
2018-08-14T02:17:21.430Z,0
2018-08-14T02:18:23.511Z,0
2018-08-14T02:19:25.614Z,0
2018-08-14T02:20:27.706Z,0
2018-08-14T02:21:29.792Z,0
2018-08-14T02:22:32.487Z,0
2018-08-14T02:23:34.856Z,0
2018-08-14T02:24:36.947Z,0
2018-08-14T02:25:39.035Z,0
2018-08-14T02:26:41.429Z,0
2018-08-14T02:27:43.512Z,0
2018-08-14T02:28:45.611Z,0
2018-08-14T02:29:47.711Z,0
2018-08-14T02:30:49.791Z,0
2018-08-14T02:31:53.177Z,0
2018-08-14T02:32:55.558Z,0
2018-08-14T02:33:57.642Z,0
2018-08-14T02:35:00.028Z,0
2018-08-14T02:36:02.761Z,0
2018-08-14T02:37:05.144Z,0
2018-08-14T02:38:07.539Z,0
2018-08-14T02:39:09.920Z,0
2018-08-14T02:40:12.692Z,0
2018-08-14T02:41:15.098Z,0
2018-08-14T02:42:17.481Z,0
2018-08-14T02:43:19.592Z,0
2018-08-14T02:44:22.265Z,0
2018-08-14T02:45:24.358Z,0
2018-08-14T02:46:26.460Z,0
2018-08-14T02:47:28.544Z,0
2018-08-14T02:48:30.644Z,0
2018-08-14T02:49:33.414Z,0
2018-08-14T02:50:35.804Z,0
2018-08-14T02:51:38.186Z,0
2018-08-14T02:52:40.570Z,0
2018-08-14T02:53:42.661Z,0
2018-08-14T02:54:44.745Z,0
2018-08-14T02:55:46.850Z,0
2018-08-14T02:56:49.241Z,0
2018-08-14T02:57:51.729Z,0
2018-08-14T02:58:53.822Z,0
2018-08-14T02:59:55.935Z,0
2018-08-14T03:00:58.016Z,0
2018-08-14T03:02:00.425Z,0
2018-08-14T03:03:02.814Z,0
2018-08-14T03:04:04.897Z,0
2018-08-14T03:05:07.292Z,0
2018-08-14T03:06:09.683Z,0
2018-08-14T03:07:11.776Z,0
2018-08-14T03:08:13.871Z,0
2018-08-14T03:09:16.266Z,0
2018-08-14T03:10:18.647Z,0
2018-08-14T03:11:20.753Z,0
2018-08-14T03:12:23.235Z,0
2018-08-14T03:13:25.326Z,0
2018-08-14T03:14:27.419Z,0
2018-08-14T03:15:29.807Z,0
2018-08-14T03:16:31.892Z,0
2018-08-14T03:17:34.698Z,0
2018-08-14T03:18:37.104Z,0
2018-08-14T03:19:39.320Z,0
2018-08-14T03:20:41.289Z,0
2018-08-14T03:21:43.401Z,0
2018-08-14T03:22:45.508Z,0
2018-08-14T03:23:47.905Z,0
2018-08-14T03:24:49.989Z,4
2018-08-14T03:25:52.486Z,4
2018-08-14T03:26:54.612Z,4
2018-08-14T03:27:56.995Z,4
2018-08-14T03:28:59.405Z,4
2018-08-14T03:30:01.488Z,4
2018-08-14T03:31:04.496Z,8
2018-08-14T03:32:06.596Z,8
2018-08-14T03:33:08.997Z,8
2018-08-14T03:34:11.370Z,12
2018-08-14T03:35:13.464Z,16
2018-08-14T03:36:15.561Z,20
2018-08-14T03:37:17.642Z,20
2018-08-14T03:38:19.744Z,28
2018-08-14T03:39:21.837Z,28
2018-08-14T03:40:23.922Z,36
2018-08-14T03:41:26.020Z,36
2018-08-14T03:42:28.118Z,40
2018-08-14T03:43:30.244Z,52
2018-08-14T03:44:32.304Z,52
2018-08-14T03:45:34.401Z,52
2018-08-14T03:46:36.482Z,52
2018-08-14T03:47:38.578Z,60
2018-08-14T03:48:40.681Z,52
2018-08-14T03:49:42.760Z,64
2018-08-14T03:50:44.858Z,68
2018-08-14T03:51:46.951Z,48
2018-08-14T03:52:49.428Z,52
2018-08-14T03:53:51.538Z,76
2018-08-14T03:54:53.628Z,76
2018-08-14T03:55:55.726Z,88
2018-08-14T03:56:58.204Z,100
2018-08-14T03:58:00.294Z,136
2018-08-14T03:59:02.391Z,112
2018-08-14T04:00:04.480Z,124
2018-08-14T04:01:06.566Z,140
2018-08-14T04:02:09.063Z,144
2018-08-14T04:03:11.149Z,116
2018-08-14T04:04:13.245Z,112
2018-08-14T04:05:15.336Z,120
2018-08-14T04:06:18.221Z,136
2018-08-14T04:07:20.303Z,188
2018-08-14T04:08:22.793Z,180
2018-08-14T04:09:24.892Z,204
2018-08-14T04:10:26.977Z,284
2018-08-14T04:11:29.468Z,268
2018-08-14T04:12:31.559Z,236
2018-08-14T04:13:33.646Z,236
2018-08-14T04:14:35.734Z,280
2018-08-14T04:15:38.152Z,324
2018-08-14T04:16:40.535Z,320
2018-08-14T04:17:42.641Z,272
2018-08-14T04:18:45.131Z,252
2018-08-14T04:19:47.604Z,256
2018-08-14T04:20:49.987Z,240
2018-08-14T04:21:52.085Z,220
2018-08-14T04:22:54.171Z,236
2018-08-14T04:23:56.270Z,196
2018-08-14T04:24:58.649Z,216
2018-08-14T04:26:00.735Z,248
2018-08-14T04:27:03.130Z,364
2018-08-14T04:28:05.216Z,424
2018-08-14T04:29:07.616Z,512
2018-08-14T04:30:09.705Z,508
2018-08-14T04:31:11.810Z,456
2018-08-14T04:32:13.897Z,672
2018-08-14T04:33:15.995Z,744
2018-08-14T04:34:18.873Z,748
2018-08-14T04:35:20.956Z,984
2018-08-14T04:36:23.063Z,1384
2018-08-14T04:37:25.829Z,1700
2018-08-14T04:38:27.927Z,1928
2018-08-14T04:39:30.002Z,1292
2018-08-14T04:40:32.396Z,1136
2018-08-14T04:41:35.161Z,1176
2018-08-14T04:42:37.248Z,1224
2018-08-14T04:43:39.352Z,1176
2018-08-14T04:44:41.729Z,1060
2018-08-14T04:45:43.877Z,1124
2018-08-14T04:46:46.273Z,1048
2018-08-14T04:47:48.368Z,696
2018-08-14T04:48:50.767Z,568
2018-08-14T04:49:53.154Z,544
2018-08-14T04:50:55.240Z,572
2018-08-14T04:51:57.330Z,544
2018-08-14T04:52:59.432Z,536
2018-08-14T04:54:01.658Z,600
2018-08-14T04:55:03.918Z,756
2018-08-14T04:56:06.023Z,772
2018-08-14T04:57:08.112Z,812
2018-08-14T04:58:10.495Z,680
2018-08-14T04:59:12.597Z,832
2018-08-14T05:00:14.675Z,948
2018-08-14T05:01:16.778Z,900
2018-08-14T05:02:18.873Z,1116
2018-08-14T05:03:21.644Z,1376
2018-08-14T05:04:24.184Z,1368
2018-08-14T05:05:26.282Z,1604
2018-08-14T05:06:28.371Z,2088
2018-08-14T05:07:30.454Z,2224
2018-08-14T05:08:32.558Z,2292
2018-08-14T05:09:34.640Z,2444
2018-08-14T05:10:37.415Z,2984
2018-08-14T05:11:40.176Z,3856
2018-08-14T05:12:42.283Z,4096
2018-08-14T05:13:44.372Z,4116
2018-08-14T05:14:46.776Z,4216
2018-08-14T05:15:48.864Z,4320
2018-08-14T05:16:50.968Z,4524
2018-08-14T05:17:53.052Z,5152
2018-08-14T05:18:55.149Z,5300
2018-08-14T05:19:57.245Z,5560
2018-08-14T05:20:59.346Z,5556
2018-08-14T05:22:01.738Z,5424
2018-08-14T05:23:03.835Z,5848
2018-08-14T05:24:05.923Z,6300
2018-08-14T05:25:08.012Z,6964
2018-08-14T05:26:10.122Z,7024
2018-08-14T05:27:12.212Z,6072
2018-08-14T05:28:14.311Z,5936
2018-08-14T05:29:16.805Z,6620
2018-08-14T05:30:19.577Z,7548
2018-08-14T05:31:21.667Z,7684
2018-08-14T05:32:23.767Z,6412
2018-08-14T05:33:25.870Z,5576
2018-08-14T05:34:28.767Z,5796
2018-08-14T05:35:30.859Z,5600
2018-08-14T05:36:32.963Z,5100
2018-08-14T05:37:35.045Z,4540
2018-08-14T05:38:37.152Z,5164
2018-08-14T05:39:39.529Z,5736
2018-08-14T05:40:42.009Z,5668
2018-08-14T05:41:44.115Z,4920
2018-08-14T05:42:46.497Z,4080
2018-08-14T05:43:48.595Z,3192
2018-08-14T05:44:50.681Z,2872
2018-08-14T05:45:53.473Z,2920
2018-08-14T05:46:55.556Z,2780
2018-08-14T05:47:57.656Z,3280
2018-08-14T05:49:00.075Z,3388
2018-08-14T05:50:02.157Z,4612
2018-08-14T05:51:04.256Z,4328
2018-08-14T05:52:06.352Z,3208
2018-08-14T05:53:08.490Z,3296
2018-08-14T05:54:10.557Z,3320
2018-08-14T05:55:12.642Z,2852
2018-08-14T05:56:14.739Z,3708
2018-08-14T05:57:16.825Z,3460
2018-08-14T05:58:18.915Z,3628
2018-08-14T05:59:21.026Z,3572
2018-08-14T06:00:23.406Z,4572
2018-08-14T06:01:25.492Z,5028
2018-08-14T06:02:27.591Z,5080
2018-08-14T06:03:29.681Z,4056
2018-08-14T06:04:31.774Z,3660
2018-08-14T06:05:33.877Z,4728
2018-08-14T06:06:36.348Z,4308
2018-08-14T06:07:38.449Z,4280
2018-08-14T06:08:40.551Z,4176
2018-08-14T06:09:43.043Z,4672
2018-08-14T06:10:45.431Z,4928
2018-08-14T06:11:47.529Z,6052
2018-08-14T06:12:49.913Z,5000
2018-08-14T06:13:52.002Z,4112
2018-08-14T06:14:54.112Z,3932
2018-08-14T06:15:56.197Z,4096
2018-08-14T06:16:58.368Z,4188
2018-08-14T06:18:00.386Z,4248
2018-08-14T06:19:02.491Z,4832
2018-08-14T06:20:04.579Z,6240
2018-08-14T06:21:06.679Z,5520
2018-08-14T06:22:08.778Z,4656
2018-08-14T06:23:10.863Z,4848
2018-08-14T06:24:13.252Z,4396
2018-08-14T06:25:15.358Z,4156
2018-08-14T06:26:18.804Z,3844
2018-08-14T06:27:20.895Z,3248
2018-08-14T06:28:23.006Z,3048
2018-08-14T06:29:25.489Z,2752
2018-08-14T06:30:27.573Z,3176
2018-08-14T06:31:29.668Z,3408
2018-08-14T06:32:32.668Z,2680
2018-08-14T06:33:35.050Z,2220
2018-08-14T06:34:37.137Z,2964
2018-08-14T06:35:39.241Z,3708
2018-08-14T06:36:41.382Z,4860
2018-08-14T06:37:43.472Z,4728
2018-08-14T06:38:45.574Z,4700
2018-08-14T06:39:47.652Z,5556
2018-08-14T06:40:49.749Z,6072
2018-08-14T06:41:51.843Z,6676
2018-08-14T06:42:53.945Z,7900
2018-08-14T06:43:56.028Z,8296
2018-08-14T06:44:58.521Z,8968
2018-08-14T06:46:00.614Z,7772
2018-08-14T06:47:02.706Z,6276
2018-08-14T06:48:05.109Z,6620
2018-08-14T06:49:07.244Z,5572
2018-08-14T06:50:09.292Z,6248
2018-08-14T06:51:11.380Z,5672
2018-08-14T06:52:13.771Z,5792
2018-08-14T06:53:15.864Z,5512
2018-08-14T06:54:17.962Z,4552
2018-08-14T06:55:20.067Z,3856
2018-08-14T06:56:22.154Z,3656
2018-08-14T06:57:24.262Z,3376
2018-08-14T06:58:26.350Z,2952
2018-08-14T06:59:28.444Z,2772
2018-08-14T07:00:30.532Z,3024
2018-08-14T07:01:32.636Z,2860
2018-08-14T07:02:34.727Z,2292
2018-08-14T07:03:36.831Z,2188
2018-08-14T07:04:38.928Z,2660
2018-08-14T07:05:41.017Z,2836
2018-08-14T07:06:43.112Z,2760
2018-08-14T07:07:45.215Z,2580
2018-08-14T07:08:47.592Z,3400
2018-08-14T07:09:50.009Z,4164
2018-08-14T07:10:52.104Z,3660
2018-08-14T07:11:54.192Z,4144
2018-08-14T07:12:56.300Z,4300
2018-08-14T07:13:58.389Z,3888
2018-08-14T07:15:00.490Z,5384
2018-08-14T07:16:02.577Z,5160
2018-08-14T07:17:04.685Z,5384
2018-08-14T07:18:06.773Z,5188
2018-08-14T07:19:08.870Z,5028
2018-08-14T07:20:10.975Z,5388
2018-08-14T07:21:13.054Z,5020
2018-08-14T07:22:15.183Z,5108
2018-08-14T07:23:17.255Z,5144
2018-08-14T07:24:19.356Z,4768
2018-08-14T07:25:21.436Z,4688
2018-08-14T07:26:23.540Z,4588
2018-08-14T07:27:25.633Z,5080
2018-08-14T07:28:27.725Z,5268
2018-08-14T07:29:29.833Z,5828
2018-08-14T07:30:31.917Z,6848
2018-08-14T07:31:34.301Z,7776
2018-08-14T07:32:36.405Z,7996
2018-08-14T07:33:38.889Z,8040
2018-08-14T07:34:40.976Z,8332
2018-08-14T07:35:43.458Z,8164
2018-08-14T07:36:45.578Z,7600
2018-08-14T07:37:47.642Z,6676
2018-08-14T07:38:50.042Z,6124
2018-08-14T07:39:52.137Z,6508
2018-08-14T07:40:54.228Z,7480
2018-08-14T07:41:56.335Z,7888
2018-08-14T07:42:58.424Z,7604
2018-08-14T07:44:01.117Z,7920
2018-08-14T07:45:03.210Z,8312
2018-08-14T07:46:05.319Z,8516
2018-08-14T07:47:07.727Z,9076
2018-08-14T07:48:09.823Z,9940
2018-08-14T07:49:11.913Z,10784
2018-08-14T07:50:14.126Z,11496
2018-08-14T07:51:16.403Z,11272
2018-08-14T07:52:18.501Z,10032
2018-08-14T07:53:20.893Z,9912
2018-08-14T07:54:22.974Z,10148
2018-08-14T07:55:25.466Z,10088
2018-08-14T07:56:27.558Z,10368
2018-08-14T07:57:29.974Z,10712
2018-08-14T07:58:32.056Z,10856
2018-08-14T07:59:34.160Z,11208
2018-08-14T08:00:36.254Z,11328
2018-08-14T08:01:38.343Z,11372
2018-08-14T08:02:40.752Z,11996
2018-08-14T08:03:42.937Z,12736
2018-08-14T08:04:45.032Z,12204
2018-08-14T08:05:47.137Z,13200
2018-08-14T08:06:49.912Z,13436
2018-08-14T08:07:51.995Z,12760
2018-08-14T08:08:54.088Z,13692
2018-08-14T08:09:56.486Z,14048
2018-08-14T08:10:58.583Z,13388
2018-08-14T08:12:00.991Z,15488
2018-08-14T08:13:03.569Z,14840
2018-08-14T08:14:05.658Z,13960
2018-08-14T08:15:07.770Z,14300
2018-08-14T08:16:09.861Z,12988
2018-08-14T08:17:11.959Z,13760
2018-08-14T08:18:14.064Z,14564
2018-08-14T08:19:16.147Z,15380
2018-08-14T08:20:18.257Z,14764
2018-08-14T08:21:20.348Z,13892
2018-08-14T08:22:22.459Z,13080
2018-08-14T08:23:24.574Z,11760
2018-08-14T08:24:26.665Z,12540
2018-08-14T08:25:28.764Z,13148
2018-08-14T08:26:30.869Z,13440
2018-08-14T08:27:33.261Z,14932
2018-08-14T08:28:35.749Z,14288
2018-08-14T08:29:37.844Z,16076
2018-08-14T08:30:40.260Z,18752
2018-08-14T08:31:42.346Z,18592
2018-08-14T08:32:44.452Z,19200
2018-08-14T08:33:46.543Z,20480
2018-08-14T08:34:48.634Z,20384
2018-08-14T08:35:50.748Z,23456
2018-08-14T08:36:53.452Z,26528
2018-08-14T08:37:55.563Z,26176
2018-08-14T08:38:57.670Z,26784
2018-08-14T08:39:59.769Z,27584
2018-08-14T08:41:01.998Z,24672
2018-08-14T08:42:04.497Z,21312
2018-08-14T08:43:06.672Z,22496
2018-08-14T08:44:08.883Z,20256
2018-08-14T08:45:11.438Z,20832
2018-08-14T08:46:13.534Z,25088
2018-08-14T08:47:16.223Z,24064
2018-08-14T08:48:18.335Z,22112
2018-08-14T08:49:20.432Z,19584
2018-08-14T08:50:22.529Z,19904
2018-08-14T08:51:24.665Z,15384
2018-08-14T08:52:27.873Z,12252
2018-08-14T08:53:30.021Z,10600
2018-08-14T08:54:32.119Z,10116
2018-08-14T08:55:34.526Z,8872
2018-08-14T08:56:36.903Z,8864
2018-08-14T08:57:39.302Z,11304
2018-08-14T08:58:41.399Z,12176
2018-08-14T08:59:43.496Z,10332
2018-08-14T09:00:45.879Z,10880
2018-08-14T09:01:47.986Z,10880
2018-08-14T09:02:50.079Z,9352
2018-08-14T09:03:52.192Z,8404
2018-08-14T09:04:54.274Z,7520
2018-08-14T09:05:56.375Z,6800
2018-08-14T09:06:58.859Z,7392
2018-08-14T09:08:01.343Z,7552
2018-08-14T09:09:03.457Z,6276
2018-08-14T09:10:05.545Z,6288
2018-08-14T09:11:07.645Z,6504
2018-08-14T09:12:09.750Z,6496
2018-08-14T09:13:11.860Z,5924
2018-08-14T09:14:13.951Z,6420
2018-08-14T09:15:16.048Z,6308
2018-08-14T09:16:18.144Z,7624
2018-08-14T09:17:20.235Z,8600
2018-08-14T09:18:22.648Z,9636
2018-08-14T09:19:25.422Z,9372
2018-08-14T09:20:27.806Z,9044
2018-08-14T09:21:29.915Z,9300
2018-08-14T09:22:32.002Z,8368
2018-08-14T09:23:34.098Z,7524
2018-08-14T09:24:36.200Z,7464
2018-08-14T09:25:38.283Z,7916
2018-08-14T09:26:40.380Z,10284
2018-08-14T09:27:42.796Z,11044
2018-08-14T09:28:44.896Z,11616
2018-08-14T09:29:46.979Z,12608
2018-08-14T09:30:49.091Z,13020
2018-08-14T09:31:51.179Z,12868
2018-08-14T09:32:53.266Z,12728
2018-08-14T09:33:55.378Z,13144
2018-08-14T09:34:57.463Z,12792
2018-08-14T09:35:59.852Z,13120
2018-08-14T09:37:01.951Z,13388
2018-08-14T09:38:04.057Z,13860
2018-08-14T09:39:06.147Z,14676
2018-08-14T09:40:08.252Z,15200
2018-08-14T09:41:10.352Z,15548
2018-08-14T09:42:12.440Z,17000
2018-08-14T09:43:14.831Z,16380
2018-08-14T09:44:17.219Z,17868
2018-08-14T09:45:19.598Z,18688
2018-08-14T09:46:21.692Z,19616
2018-08-14T09:47:23.796Z,18720
2018-08-14T09:48:25.889Z,17724
2018-08-14T09:49:27.999Z,18496
2018-08-14T09:50:30.097Z,19552
2018-08-14T09:51:32.186Z,19264
2018-08-14T09:52:34.573Z,18944
2018-08-14T09:53:36.715Z,18752
2018-08-14T09:54:39.159Z,19264
2018-08-14T09:55:41.564Z,20608
2018-08-14T09:56:43.955Z,22112
2018-08-14T09:57:46.433Z,21696
2018-08-14T09:58:48.839Z,19904
2018-08-14T09:59:51.225Z,19008
2018-08-14T10:00:53.320Z,19392
2018-08-14T10:01:55.412Z,19424
2018-08-14T10:02:57.527Z,17568
2018-08-14T10:03:59.615Z,17564
2018-08-14T10:05:01.712Z,19360
2018-08-14T10:06:04.109Z,20992
2018-08-14T10:07:06.189Z,22368
2018-08-14T10:08:08.346Z,22624
2018-08-14T10:09:10.394Z,20128
2018-08-14T10:10:12.792Z,17136
2018-08-14T10:11:14.874Z,14164
2018-08-14T10:12:16.975Z,12348
2018-08-14T10:13:19.071Z,11884
2018-08-14T10:14:21.165Z,11836
2018-08-14T10:15:23.274Z,12256
2018-08-14T10:16:25.369Z,12764
2018-08-14T10:17:27.466Z,12224
2018-08-14T10:18:29.556Z,12612
2018-08-14T10:19:31.660Z,13728
2018-08-14T10:20:35.340Z,14320
2018-08-14T10:21:38.653Z,14748
2018-08-14T10:22:40.764Z,14200
2018-08-14T10:23:42.871Z,13492
2018-08-14T10:24:44.952Z,13896
2018-08-14T10:25:47.340Z,14924
2018-08-14T10:26:49.514Z,16124
2018-08-14T10:27:51.536Z,16976
2018-08-14T10:28:53.659Z,16816
2018-08-14T10:29:55.746Z,16996
2018-08-14T10:30:57.841Z,17716
2018-08-14T10:31:59.949Z,19072
2018-08-14T10:33:02.743Z,20192
2018-08-14T10:34:04.838Z,22176
2018-08-14T10:35:06.931Z,25472
2018-08-14T10:36:09.040Z,28800
2018-08-14T10:37:11.128Z,27456
2018-08-14T10:38:13.228Z,25856
2018-08-14T10:39:15.335Z,23776
2018-08-14T10:40:17.421Z,22848
2018-08-14T10:41:19.913Z,23872
2018-08-14T10:42:22.007Z,26592
2018-08-14T10:43:24.110Z,28640
2018-08-14T10:44:26.195Z,30240
2018-08-14T10:45:28.303Z,33984
2018-08-14T10:46:30.420Z,50272
2018-08-14T10:47:32.837Z,39616
2018-08-14T10:48:35.236Z,42016
2018-08-14T10:49:37.325Z,49472
2018-08-14T10:50:39.428Z,49760
2018-08-14T10:51:41.535Z,44416
2018-08-14T10:52:43.633Z,45568
2018-08-14T10:53:45.728Z,74752
2018-08-14T10:54:47.827Z,89792
2018-08-14T10:55:49.931Z,100384
2018-08-14T10:56:52.426Z,90848
2018-08-14T10:57:54.513Z,48960
2018-08-14T10:58:56.908Z,97056
2018-08-14T10:59:59.015Z,62272
2018-08-14T11:01:01.447Z,43808
2018-08-14T11:02:03.942Z,40416
2018-08-14T11:03:06.041Z,36288
2018-08-14T11:04:08.421Z,30144
2018-08-14T11:05:10.530Z,30048
2018-08-14T11:06:12.627Z,33600
2018-08-14T11:07:14.728Z,34272
2018-08-14T11:08:16.823Z,32256
2018-08-14T11:09:19.229Z,32576
2018-08-14T11:10:21.323Z,39840
2018-08-14T11:11:23.425Z,36960
2018-08-14T11:12:25.535Z,37920
2018-08-14T11:13:27.687Z,41472
2018-08-14T11:14:30.085Z,41824
2018-08-14T11:15:32.181Z,39008
2018-08-14T11:16:34.877Z,39232
2018-08-14T11:17:37.655Z,46368
2018-08-14T11:18:39.760Z,42080
2018-08-14T11:19:41.862Z,129440
2018-08-14T11:20:44.351Z,69152
2018-08-14T11:21:46.762Z,119520
2018-08-14T11:22:48.853Z,116384
2018-08-14T11:23:50.957Z,112544
2018-08-14T11:24:53.397Z,123456
2018-08-14T11:25:55.459Z,125536
2018-08-14T11:26:57.556Z,83456
2018-08-14T11:27:59.660Z,49920
2018-08-14T11:29:01.759Z,32992
2018-08-14T11:30:03.853Z,27360
2018-08-14T11:31:05.963Z,45408
2018-08-14T11:32:08.062Z,119488
2018-08-14T11:33:10.173Z,113952
2018-08-14T11:34:12.547Z,117664
2018-08-14T11:35:14.653Z,92480
2018-08-14T11:36:16.756Z,128128
2018-08-14T11:37:18.852Z,105600
2018-08-14T11:38:20.970Z,33344
2018-08-14T11:39:23.071Z,31520
2018-08-14T11:40:25.183Z,30304
2018-08-14T11:41:27.610Z,35360
2018-08-14T11:42:30.013Z,120640
2018-08-14T11:43:32.109Z,29664
2018-08-14T11:44:34.211Z,22272
2018-08-14T11:45:36.324Z,19872
2018-08-14T11:46:38.414Z,27680
2018-08-14T11:47:40.553Z,114144
2018-08-14T11:48:42.627Z,22432
2018-08-14T11:49:44.734Z,54080
2018-08-14T11:50:46.896Z,65536
2018-08-14T11:51:49.290Z,129376
2018-08-14T11:52:51.388Z,134656
2018-08-14T11:53:53.486Z,139200
2018-08-14T11:54:55.605Z,134208
2018-08-14T11:55:57.696Z,40896
2018-08-14T11:56:59.805Z,26976
2018-08-14T11:58:01.920Z,119488
2018-08-14T11:59:04.027Z,119232
2018-08-14T12:00:06.123Z,116224
2018-08-14T12:01:08.520Z,116096
2018-08-14T12:02:10.755Z,120384
2018-08-14T12:03:12.725Z,129184
2018-08-14T12:04:14.845Z,120224
2018-08-14T12:05:16.949Z,119488
2018-08-14T12:06:19.047Z,17880
2018-08-14T12:07:21.168Z,20640
2018-08-14T12:08:23.270Z,123520
2018-08-14T12:09:25.379Z,27712
2018-08-14T12:10:27.492Z,28064
2018-08-14T12:11:29.583Z,31392
2018-08-14T12:12:31.694Z,119808
2018-08-14T12:13:34.095Z,30592
2018-08-14T12:14:36.504Z,29504
2018-08-14T12:15:38.598Z,26176
2018-08-14T12:16:40.715Z,29696
2018-08-14T12:17:42.820Z,96320
2018-08-14T12:18:44.925Z,135072
2018-08-14T12:19:47.124Z,116064
2018-08-14T12:20:49.217Z,42176
2018-08-14T12:21:51.903Z,30496
2018-08-14T12:22:53.999Z,27072
2018-08-14T12:23:56.123Z,37856
2018-08-14T12:24:58.509Z,35872
2018-08-14T12:26:00.617Z,30240
2018-08-14T12:27:02.726Z,24704
2018-08-14T12:28:04.815Z,23968
2018-08-14T12:29:06.932Z,40544
2018-08-14T12:30:09.035Z,25952
2018-08-14T12:31:11.139Z,26016
2018-08-14T12:32:13.242Z,28416
2018-08-14T12:33:15.352Z,28992
2018-08-14T12:34:17.745Z,29024
2018-08-14T12:35:19.859Z,32832
2018-08-14T12:36:21.972Z,37184
2018-08-14T12:37:24.063Z,80160
2018-08-14T12:38:26.568Z,41088
2018-08-14T12:39:28.679Z,59328
2018-08-14T12:40:30.941Z,50048
2018-08-14T12:41:33.426Z,36864
2018-08-14T12:42:35.529Z,28704
2018-08-14T12:43:37.624Z,23616
2018-08-14T12:44:40.035Z,21248
2018-08-14T12:45:42.134Z,19168
2018-08-14T12:46:44.236Z,17760
2018-08-14T12:47:46.617Z,16240
2018-08-14T12:48:48.722Z,15516
2018-08-14T12:49:50.868Z,15608
2018-08-14T12:50:52.935Z,16728
2018-08-14T12:51:55.033Z,19552
2018-08-14T12:52:57.149Z,24032
2018-08-14T12:53:59.529Z,28064
2018-08-14T12:55:01.634Z,29376
2018-08-14T12:56:03.727Z,27744
2018-08-14T12:57:06.436Z,77728
2018-08-14T12:58:08.529Z,23680
2018-08-14T12:59:10.634Z,22624
2018-08-14T13:00:12.741Z,22304
2018-08-14T13:01:15.115Z,21920
2018-08-14T13:02:17.222Z,20160
2018-08-14T13:03:19.326Z,18496
2018-08-14T13:04:21.707Z,18816
2018-08-14T13:05:24.097Z,21376
2018-08-14T13:06:26.206Z,25408
2018-08-14T13:07:28.306Z,29216
2018-08-14T13:08:30.418Z,32320
2018-08-14T13:09:33.513Z,31136
2018-08-14T13:10:35.601Z,31264
2018-08-14T13:11:37.707Z,32800
2018-08-14T13:12:39.819Z,31776
2018-08-14T13:13:41.910Z,30272
2018-08-14T13:14:44.019Z,30432
2018-08-14T13:15:46.122Z,27072
2018-08-14T13:16:48.222Z,21216
2018-08-14T13:17:50.339Z,16928
2018-08-14T13:18:52.439Z,15072
2018-08-14T13:19:54.542Z,14228
2018-08-14T13:20:56.639Z,14032
2018-08-14T13:21:58.753Z,14820
2018-08-14T13:23:00.851Z,16840
2018-08-14T13:24:02.957Z,19456
2018-08-14T13:25:05.068Z,23392
2018-08-14T13:26:07.157Z,27424
2018-08-14T13:27:09.278Z,29856
2018-08-14T13:28:11.377Z,30080
2018-08-14T13:29:13.485Z,25440
2018-08-14T13:30:15.574Z,21120
2018-08-14T13:31:18.079Z,16856
2018-08-14T13:32:20.178Z,14528
2018-08-14T13:33:22.576Z,14108
2018-08-14T13:34:24.983Z,15296
2018-08-14T13:35:27.365Z,17624
2018-08-14T13:36:29.470Z,19904
2018-08-14T13:37:31.581Z,21568
2018-08-14T13:38:33.686Z,24032
2018-08-14T13:39:35.780Z,26528
2018-08-14T13:40:38.174Z,26432
2018-08-14T13:41:40.558Z,25760
2018-08-14T13:42:42.651Z,23392
2018-08-14T13:43:44.760Z,20352
2018-08-14T13:44:46.856Z,17368
2018-08-14T13:45:48.973Z,14804
2018-08-14T13:46:51.094Z,12556
2018-08-14T13:47:53.218Z,11636
2018-08-14T13:48:55.290Z,11716
2018-08-14T13:49:57.790Z,12116
2018-08-14T13:51:00.169Z,12448
2018-08-14T13:52:02.277Z,12852
2018-08-14T13:53:04.378Z,13216
2018-08-14T13:54:06.488Z,13000
2018-08-14T13:55:08.884Z,12608
2018-08-14T13:56:10.999Z,12456
2018-08-14T13:57:13.096Z,12096
2018-08-14T13:58:15.189Z,10532
2018-08-14T13:59:17.333Z,8532
2018-08-14T14:00:19.392Z,7704